sensor_id;sensor_type;location;lat;lon;timestamp;temperature;humidity
29731;DHT22;16639;51.488;0.152;2022-09-01T00:02:28;17.40;99.90
29731;DHT22;16639;51.488;0.152;2022-09-01T00:04:55;17.40;99.90
29731;DHT22;16639;51.488;0.152;2022-09-01T00:07:27;17.40;99.90
29731;DHT22;16639;51.488;0.152;2022-09-01T00:09:58;17.40;99.90
29731;DHT22;16639;51.488;0.152;2022-09-01T00:12:27;17.40;99.90
29731;DHT22;16639;51.488;0.152;2022-09-01T00:14:54;16.50;99.90
29731;DHT22;16639;51.488;0.152;2022-09-01T00:17:21;17.40;99.90
29731;DHT22;16639;51.488;0.152;2022-09-01T00:19:48;17.40;99.90
29731;DHT22;16639;51.488;0.152;2022-09-01T00:22:16;17.40;99.90
29731;DHT22;16639;51.488;0.152;2022-09-01T00:24:43;18.00;99.90
29731;DHT22;16639;51.488;0.152;2022-09-01T00:27:13;17.50;99.90
29731;DHT22;16639;51.488;0.152;2022-09-01T00:29:40;17.50;99.90
29731;DHT22;16639;51.488;0.152;2022-09-01T00:32:10;17.50;99.90
29731;DHT22;16639;51.488;0.152;2022-09-01T00:34:37;17.50;99.90
29731;DHT22;16639;51.488;0.152;2022-09-01T00:37:05;17.50;99.90
29731;DHT22;16639;51.488;0.152;2022-09-01T00:39:32;17.50;99.90
29731;DHT22;16639;51.488;0.152;2022-09-01T00:42:00;17.50;99.90
29731;DHT22;16639;51.488;0.152;2022-09-01T00:44:28;17.50;99.90
29731;DHT22;16639;51.488;0.152;2022-09-01T00:46:58;17.50;99.90
29731;DHT22;16639;51.488;0.152;2022-09-01T00:52:12;17.40;99.90
29731;DHT22;16639;51.488;0.152;2022-09-01T00:54:43;17.50;99.90
29731;DHT22;16639;51.488;0.152;2022-09-01T00:57:11;17.50;99.90
29731;DHT22;16639;51.488;0.152;2022-09-01T00:59:42;17.50;99.90
29731;DHT22;16639;51.488;0.152;2022-09-01T01:02:12;17.50;99.90
29731;DHT22;16639;51.488;0.152;2022-09-01T01:04:39;17.50;99.90
29731;DHT22;16639;51.488;0.152;2022-09-01T01:07:07;17.50;99.90
29731;DHT22;16639;51.488;0.152;2022-09-01T01:09:35;17.40;99.90
29731;DHT22;16639;51.488;0.152;2022-09-01T01:12:04;17.50;99.90
29731;DHT22;16639;51.488;0.152;2022-09-01T01:14:33;17.50;99.90
29731;DHT22;16639;51.488;0.152;2022-09-01T01:17:02;17.50;99.90
29731;DHT22;16639;51.488;0.152;2022-09-01T01:22:21;17.50;99.90
29731;DHT22;16639;51.488;0.152;2022-09-01T01:25:09;17.50;99.90
29731;DHT22;16639;51.488;0.152;2022-09-01T01:27:39;17.50;99.90
29731;DHT22;16639;51.488;0.152;2022-09-01T01:30:11;17.50;99.90
29731;DHT22;16639;51.488;0.152;2022-09-01T01:32:38;17.50;99.90
29731;DHT22;16639;51.488;0.152;2022-09-01T01:35:10;17.50;99.90
29731;DHT22;16639;51.488;0.152;2022-09-01T01:37:41;17.50;99.90
29731;DHT22;16639;51.488;0.152;2022-09-01T01:40:14;18.40;99.90
29731;DHT22;16639;51.488;0.152;2022-09-01T01:42:45;17.50;99.90
29731;DHT22;16639;51.488;0.152;2022-09-01T01:45:13;17.50;99.90
29731;DHT22;16639;51.488;0.152;2022-09-01T01:47:43;18.80;99.90
29731;DHT22;16639;51.488;0.152;2022-09-01T01:50:13;17.60;99.90
29731;DHT22;16639;51.488;0.152;2022-09-01T01:52:40;17.60;99.90
29731;DHT22;16639;51.488;0.152;2022-09-01T01:55:11;18.50;99.90
29731;DHT22;16639;51.488;0.152;2022-09-01T01:57:39;17.60;99.90
29731;DHT22;16639;51.488;0.152;2022-09-01T02:00:11;17.60;99.90
29731;DHT22;16639;51.488;0.152;2022-09-01T02:02:41;17.60;99.90
29731;DHT22;16639;51.488;0.152;2022-09-01T02:05:08;17.60;99.90
29731;DHT22;16639;51.488;0.152;2022-09-01T02:07:38;17.60;99.90
29731;DHT22;16639;51.488;0.152;2022-09-01T02:10:09;17.60;99.90
29731;DHT22;16639;51.488;0.152;2022-09-01T02:12:37;17.60;99.90
29731;DHT22;16639;51.488;0.152;2022-09-01T02:15:04;17.60;99.90
29731;DHT22;16639;51.488;0.152;2022-09-01T02:17:33;17.60;99.90
29731;DHT22;16639;51.488;0.152;2022-09-01T02:20:00;17.60;99.90
29731;DHT22;16639;51.488;0.152;2022-09-01T02:22:27;17.60;99.90
29731;DHT22;16639;51.488;0.152;2022-09-01T02:24:54;17.60;99.90
29731;DHT22;16639;51.488;0.152;2022-09-01T02:27:23;17.60;99.90
29731;DHT22;16639;51.488;0.152;2022-09-01T02:29:52;17.60;99.90
29731;DHT22;16639;51.488;0.152;2022-09-01T02:32:21;17.60;99.90
29731;DHT22;16639;51.488;0.152;2022-09-01T02:34:50;17.60;99.90
29731;DHT22;16639;51.488;0.152;2022-09-01T02:37:19;17.70;99.90
29731;DHT22;16639;51.488;0.152;2022-09-01T02:39:51;18.00;99.90
29731;DHT22;16639;51.488;0.152;2022-09-01T02:42:25;17.60;99.90
29731;DHT22;16639;51.488;0.152;2022-09-01T02:44:55;17.70;99.90
29731;DHT22;16639;51.488;0.152;2022-09-01T02:47:28;17.80;99.90
29731;DHT22;16639;51.488;0.152;2022-09-01T02:49:55;17.70;99.90
29731;DHT22;16639;51.488;0.152;2022-09-01T02:52:26;18.30;99.90
29731;DHT22;16639;51.488;0.152;2022-09-01T02:54:55;17.70;99.90
29731;DHT22;16639;51.488;0.152;2022-09-01T02:57:23;17.60;99.90
29731;DHT22;16639;51.488;0.152;2022-09-01T02:59:50;17.60;99.90
29731;DHT22;16639;51.488;0.152;2022-09-01T03:02:18;17.60;99.90
29731;DHT22;16639;51.488;0.152;2022-09-01T03:04:45;17.60;99.90
29731;DHT22;16639;51.488;0.152;2022-09-01T03:07:18;17.60;99.90
29731;DHT22;16639;51.488;0.152;2022-09-01T03:09:48;17.60;99.90
29731;DHT22;16639;51.488;0.152;2022-09-01T03:12:18;17.50;99.90
29731;DHT22;16639;51.488;0.152;2022-09-01T03:14:46;17.50;99.90
29731;DHT22;16639;51.488;0.152;2022-09-01T03:17:13;17.60;99.90
29731;DHT22;16639;51.488;0.152;2022-09-01T03:19:41;17.50;99.90
29731;DHT22;16639;51.488;0.152;2022-09-01T03:22:10;17.50;99.90
29731;DHT22;16639;51.488;0.152;2022-09-01T03:24:40;17.60;99.90
29731;DHT22;16639;51.488;0.152;2022-09-01T03:27:07;17.50;99.90
29731;DHT22;16639;51.488;0.152;2022-09-01T03:29:37;17.60;99.90
29731;DHT22;16639;51.488;0.152;2022-09-01T03:32:04;17.60;99.90
29731;DHT22;16639;51.488;0.152;2022-09-01T03:34:32;17.60;99.90
29731;DHT22;16639;51.488;0.152;2022-09-01T03:37:02;17.60;99.90
29731;DHT22;16639;51.488;0.152;2022-09-01T03:39:35;17.60;99.90
29731;DHT22;16639;51.488;0.152;2022-09-01T03:42:03;17.60;99.90
29731;DHT22;16639;51.488;0.152;2022-09-01T03:44:30;17.60;99.90
29731;DHT22;16639;51.488;0.152;2022-09-01T03:47:01;17.60;99.90
29731;DHT22;16639;51.488;0.152;2022-09-01T03:49:28;17.60;99.90
29731;DHT22;16639;51.488;0.152;2022-09-01T03:51:55;17.30;99.90
29731;DHT22;16639;51.488;0.152;2022-09-01T03:54:25;17.60;99.90
29731;DHT22;16639;51.488;0.152;2022-09-01T03:56:56;17.60;99.90
29731;DHT22;16639;51.488;0.152;2022-09-01T03:59:26;17.60;99.90
29731;DHT22;16639;51.488;0.152;2022-09-01T04:01:54;17.60;99.90
29731;DHT22;16639;51.488;0.152;2022-09-01T04:04:22;17.60;99.90
29731;DHT22;16639;51.488;0.152;2022-09-01T04:06:51;17.60;99.90
29731;DHT22;16639;51.488;0.152;2022-09-01T04:09:22;17.60;99.90
29731;DHT22;16639;51.488;0.152;2022-09-01T04:11:49;17.60;99.90
29731;DHT22;16639;51.488;0.152;2022-09-01T04:14:17;17.70;99.90
29731;DHT22;16639;51.488;0.152;2022-09-01T04:16:45;17.60;99.90
29731;DHT22;16639;51.488;0.152;2022-09-01T04:19:33;17.60;99.90
29731;DHT22;16639;51.488;0.152;2022-09-01T04:22:03;17.60;99.90
29731;DHT22;16639;51.488;0.152;2022-09-01T04:24:31;18.20;99.90
29731;DHT22;16639;51.488;0.152;2022-09-01T04:27:00;17.60;99.90
29731;DHT22;16639;51.488;0.152;2022-09-01T04:29:30;17.60;99.90
29731;DHT22;16639;51.488;0.152;2022-09-01T04:32:00;17.60;99.90
29731;DHT22;16639;51.488;0.152;2022-09-01T04:34:33;17.60;99.90
29731;DHT22;16639;51.488;0.152;2022-09-01T04:37:07;17.60;99.90
29731;DHT22;16639;51.488;0.152;2022-09-01T04:39:34;17.50;99.90
29731;DHT22;16639;51.488;0.152;2022-09-01T04:42:04;17.50;99.90
29731;DHT22;16639;51.488;0.152;2022-09-01T04:44:32;16.90;99.90
29731;DHT22;16639;51.488;0.152;2022-09-01T04:46:59;17.50;99.90
29731;DHT22;16639;51.488;0.152;2022-09-01T04:49:27;17.50;99.90
29731;DHT22;16639;51.488;0.152;2022-09-01T04:51:59;17.50;99.90
29731;DHT22;16639;51.488;0.152;2022-09-01T04:54:27;17.50;99.90
29731;DHT22;16639;51.488;0.152;2022-09-01T04:56:54;17.40;99.90
29731;DHT22;16639;51.488;0.152;2022-09-01T04:59:23;17.40;99.90
29731;DHT22;16639;51.488;0.152;2022-09-01T05:01:50;17.40;99.90
29731;DHT22;16639;51.488;0.152;2022-09-01T05:04:21;17.40;99.90
29731;DHT22;16639;51.488;0.152;2022-09-01T05:06:52;17.40;99.90
29731;DHT22;16639;51.488;0.152;2022-09-01T05:09:28;17.40;99.90
29731;DHT22;16639;51.488;0.152;2022-09-01T05:11:56;17.40;99.90
29731;DHT22;16639;51.488;0.152;2022-09-01T05:14:24;17.40;99.90
29731;DHT22;16639;51.488;0.152;2022-09-01T05:16:58;17.40;99.90
29731;DHT22;16639;51.488;0.152;2022-09-01T05:19:26;17.40;99.90
29731;DHT22;16639;51.488;0.152;2022-09-01T05:21:55;17.40;99.90
29731;DHT22;16639;51.488;0.152;2022-09-01T05:24:25;17.40;99.90
29731;DHT22;16639;51.488;0.152;2022-09-01T05:26:58;17.30;99.90
29731;DHT22;16639;51.488;0.152;2022-09-01T05:29:26;17.40;99.90
29731;DHT22;16639;51.488;0.152;2022-09-01T05:31:57;17.40;99.90
29731;DHT22;16639;51.488;0.152;2022-09-01T05:34:25;17.50;99.90
29731;DHT22;16639;51.488;0.152;2022-09-01T05:36:56;17.40;99.90
29731;DHT22;16639;51.488;0.152;2022-09-01T05:39:25;17.40;99.90
29731;DHT22;16639;51.488;0.152;2022-09-01T05:41:53;17.50;99.90
29731;DHT22;16639;51.488;0.152;2022-09-01T05:44:20;17.50;99.90
29731;DHT22;16639;51.488;0.152;2022-09-01T05:46:50;17.60;99.90
29731;DHT22;16639;51.488;0.152;2022-09-01T05:49:19;17.50;99.90
29731;DHT22;16639;51.488;0.152;2022-09-01T05:51:47;18.20;99.90
29731;DHT22;16639;51.488;0.152;2022-09-01T05:54:19;17.60;99.90
29731;DHT22;16639;51.488;0.152;2022-09-01T05:56:54;17.60;99.90
29731;DHT22;16639;51.488;0.152;2022-09-01T05:59:44;17.60;99.90
29731;DHT22;16639;51.488;0.152;2022-09-01T06:02:21;17.60;99.90
29731;DHT22;16639;51.488;0.152;2022-09-01T06:04:48;17.60;99.90
29731;DHT22;16639;51.488;0.152;2022-09-01T06:07:16;17.70;99.90
29731;DHT22;16639;51.488;0.152;2022-09-01T06:09:51;17.70;99.90
29731;DHT22;16639;51.488;0.152;2022-09-01T06:12:19;17.60;99.90
29731;DHT22;16639;51.488;0.152;2022-09-01T06:14:51;17.70;99.90
29731;DHT22;16639;51.488;0.152;2022-09-01T06:17:20;17.60;99.90
29731;DHT22;16639;51.488;0.152;2022-09-01T06:19:51;17.70;99.90
29731;DHT22;16639;51.488;0.152;2022-09-01T06:22:19;17.70;99.90
29731;DHT22;16639;51.488;0.152;2022-09-01T06:24:46;17.70;99.90
29731;DHT22;16639;51.488;0.152;2022-09-01T06:27:21;17.70;99.90
29731;DHT22;16639;51.488;0.152;2022-09-01T06:29:48;17.70;99.90
29731;DHT22;16639;51.488;0.152;2022-09-01T06:32:19;17.70;99.90
29731;DHT22;16639;51.488;0.152;2022-09-01T06:34:47;17.80;99.90
29731;DHT22;16639;51.488;0.152;2022-09-01T06:37:17;17.70;99.90
29731;DHT22;16639;51.488;0.152;2022-09-01T06:39:49;17.70;99.90
29731;DHT22;16639;51.488;0.152;2022-09-01T06:42:17;17.70;99.90
29731;DHT22;16639;51.488;0.152;2022-09-01T06:44:45;17.80;99.90
29731;DHT22;16639;51.488;0.152;2022-09-01T06:47:13;17.80;99.90
29731;DHT22;16639;51.488;0.152;2022-09-01T06:49:41;17.80;99.90
29731;DHT22;16639;51.488;0.152;2022-09-01T06:52:11;17.90;99.90
29731;DHT22;16639;51.488;0.152;2022-09-01T06:54:40;17.90;99.90
29731;DHT22;16639;51.488;0.152;2022-09-01T06:57:10;18.00;99.90
29731;DHT22;16639;51.488;0.152;2022-09-01T06:59:57;18.10;99.90
29731;DHT22;16639;51.488;0.152;2022-09-01T07:02:25;18.20;99.90
29731;DHT22;16639;51.488;0.152;2022-09-01T07:04:53;18.20;99.90
29731;DHT22;16639;51.488;0.152;2022-09-01T07:07:21;18.20;99.90
29731;DHT22;16639;51.488;0.152;2022-09-01T07:10:08;18.20;99.90
29731;DHT22;16639;51.488;0.152;2022-09-01T07:12:56;18.30;99.90
29731;DHT22;16639;51.488;0.152;2022-09-01T07:15:39;18.30;99.90
29731;DHT22;16639;51.488;0.152;2022-09-01T07:18:26;18.30;99.90
29731;DHT22;16639;51.488;0.152;2022-09-01T07:20:55;18.30;99.90
29731;DHT22;16639;51.488;0.152;2022-09-01T07:23:42;18.30;99.90
29731;DHT22;16639;51.488;0.152;2022-09-01T07:26:29;18.00;99.90
29731;DHT22;16639;51.488;0.152;2022-09-01T07:28:57;18.40;99.90
29731;DHT22;16639;51.488;0.152;2022-09-01T07:31:28;18.50;99.90
29731;DHT22;16639;51.488;0.152;2022-09-01T07:34:17;18.50;99.90
29731;DHT22;16639;51.488;0.152;2022-09-01T07:37:05;18.50;99.90
29731;DHT22;16639;51.488;0.152;2022-09-01T07:39:52;18.50;99.90
29731;DHT22;16639;51.488;0.152;2022-09-01T07:42:21;18.40;99.90
29731;DHT22;16639;51.488;0.152;2022-09-01T07:45:09;18.50;99.90
29731;DHT22;16639;51.488;0.152;2022-09-01T07:47:55;18.50;99.90
29731;DHT22;16639;51.488;0.152;2022-09-01T07:50:22;18.50;99.90
29731;DHT22;16639;51.488;0.152;2022-09-01T07:53:15;19.30;99.90
29731;DHT22;16639;51.488;0.152;2022-09-01T07:55:45;18.60;99.90
29731;DHT22;16639;51.488;0.152;2022-09-01T07:58:12;18.60;99.90
29731;DHT22;16639;51.488;0.152;2022-09-01T08:00:40;18.00;99.90
29731;DHT22;16639;51.488;0.152;2022-09-01T08:03:11;19.70;99.90
29731;DHT22;16639;51.488;0.152;2022-09-01T08:05:39;19.40;99.90
29731;DHT22;16639;51.488;0.152;2022-09-01T08:08:07;18.60;99.90
29731;DHT22;16639;51.488;0.152;2022-09-01T08:10:55;18.70;99.90
29731;DHT22;16639;51.488;0.152;2022-09-01T08:13:32;18.80;99.90
29731;DHT22;16639;51.488;0.152;2022-09-01T08:16:06;18.70;99.90
29731;DHT22;16639;51.488;0.152;2022-09-01T08:18:42;18.70;99.90
29731;DHT22;16639;51.488;0.152;2022-09-01T08:21:17;18.80;99.90
29731;DHT22;16639;51.488;0.152;2022-09-01T08:23:44;18.80;99.90
29731;DHT22;16639;51.488;0.152;2022-09-01T08:26:14;18.90;99.90
29731;DHT22;16639;51.488;0.152;2022-09-01T08:28:42;18.90;99.90
29731;DHT22;16639;51.488;0.152;2022-09-01T08:31:21;19.00;99.90
29731;DHT22;16639;51.488;0.152;2022-09-01T08:33:49;19.00;99.90
29731;DHT22;16639;51.488;0.152;2022-09-01T08:36:17;19.00;99.90
29731;DHT22;16639;51.488;0.152;2022-09-01T08:38:50;19.00;99.90
29731;DHT22;16639;51.488;0.152;2022-09-01T08:46:53;19.30;99.90
29731;DHT22;16639;51.488;0.152;2022-09-01T08:49:22;19.30;99.90
29731;DHT22;16639;51.488;0.152;2022-09-01T08:54:41;19.40;99.90
29731;DHT22;16639;51.488;0.152;2022-09-01T08:57:17;19.40;99.90
29731;DHT22;16639;51.488;0.152;2022-09-01T08:59:45;19.40;99.90
29731;DHT22;16639;51.488;0.152;2022-09-01T09:09:52;19.50;99.90
29731;DHT22;16639;51.488;0.152;2022-09-01T09:12:31;19.50;99.90
29731;DHT22;16639;51.488;0.152;2022-09-01T09:18:05;19.60;99.90
29731;DHT22;16639;51.488;0.152;2022-09-01T09:20:54;19.20;99.90
29731;DHT22;16639;51.488;0.152;2022-09-01T09:23:28;19.60;99.90
29731;DHT22;16639;51.488;0.152;2022-09-01T09:25:55;19.40;99.90
29731;DHT22;16639;51.488;0.152;2022-09-01T09:28:23;19.60;99.90
29731;DHT22;16639;51.488;0.152;2022-09-01T09:31:23;19.60;99.90
29731;DHT22;16639;51.488;0.152;2022-09-01T09:33:38;19.50;99.90
29731;DHT22;16639;51.488;0.152;2022-09-01T09:36:23;19.50;99.90
29731;DHT22;16639;51.488;0.152;2022-09-01T09:39:06;19.50;99.90
29731;DHT22;16639;51.488;0.152;2022-09-01T09:41:33;19.50;99.90
29731;DHT22;16639;51.488;0.152;2022-09-01T09:46:40;19.50;99.90
29731;DHT22;16639;51.488;0.152;2022-09-01T09:51:40;19.50;99.90
29731;DHT22;16639;51.488;0.152;2022-09-01T09:54:31;19.50;99.90
29731;DHT22;16639;51.488;0.152;2022-09-01T09:57:05;19.50;99.90
29731;DHT22;16639;51.488;0.152;2022-09-01T09:59:37;19.60;99.90
29731;DHT22;16639;51.488;0.152;2022-09-01T10:04:58;19.70;99.90
29731;DHT22;16639;51.488;0.152;2022-09-01T10:07:30;19.90;99.90
29731;DHT22;16639;51.488;0.152;2022-09-01T10:09:59;19.80;99.90
29731;DHT22;16639;51.488;0.152;2022-09-01T10:12:27;19.80;99.90
29731;DHT22;16639;51.488;0.152;2022-09-01T10:15:00;19.80;99.90
29731;DHT22;16639;51.488;0.152;2022-09-01T10:17:41;19.80;99.90
29731;DHT22;16639;51.488;0.152;2022-09-01T10:20:14;19.80;99.90
29731;DHT22;16639;51.488;0.152;2022-09-01T10:22:43;19.80;99.90
29731;DHT22;16639;51.488;0.152;2022-09-01T10:25:13;19.80;99.90
29731;DHT22;16639;51.488;0.152;2022-09-01T10:27:44;19.80;99.90
29731;DHT22;16639;51.488;0.152;2022-09-01T10:30:17;19.90;99.90
29731;DHT22;16639;51.488;0.152;2022-09-01T10:32:56;19.90;99.90
29731;DHT22;16639;51.488;0.152;2022-09-01T10:35:34;19.80;99.90
29731;DHT22;16639;51.488;0.152;2022-09-01T10:38:08;19.90;99.90
29731;DHT22;16639;51.488;0.152;2022-09-01T10:40:39;19.90;99.90
29731;DHT22;16639;51.488;0.152;2022-09-01T10:45:53;19.90;99.90
29731;DHT22;16639;51.488;0.152;2022-09-01T10:48:31;19.90;99.90
29731;DHT22;16639;51.488;0.152;2022-09-01T10:53:54;18.70;99.90
29731;DHT22;16639;51.488;0.152;2022-09-01T10:59:23;20.10;99.90
29731;DHT22;16639;51.488;0.152;2022-09-01T11:02:13;20.10;99.90
29731;DHT22;16639;51.488;0.152;2022-09-01T11:13:33;20.40;99.90
29731;DHT22;16639;51.488;0.152;2022-09-01T11:15:52;20.40;99.90
29731;DHT22;16639;51.488;0.152;2022-09-01T11:18:27;20.40;99.90
29731;DHT22;16639;51.488;0.152;2022-09-01T11:21:15;20.40;99.90
29731;DHT22;16639;51.488;0.152;2022-09-01T11:23:45;20.50;99.90
29731;DHT22;16639;51.488;0.152;2022-09-01T11:28:59;20.60;99.90
29731;DHT22;16639;51.488;0.152;2022-09-01T11:31:37;20.70;99.90
29731;DHT22;16639;51.488;0.152;2022-09-01T11:36:45;20.70;99.90
29731;DHT22;16639;51.488;0.152;2022-09-01T11:44:25;20.70;99.90
29731;DHT22;16639;51.488;0.152;2022-09-01T11:46:54;20.70;99.90
29731;DHT22;16639;51.488;0.152;2022-09-01T11:49:27;20.70;99.90
29731;DHT22;16639;51.488;0.152;2022-09-01T11:51:55;20.70;99.90
29731;DHT22;16639;51.488;0.152;2022-09-01T11:54:23;20.70;99.90
29731;DHT22;16639;51.488;0.152;2022-09-01T11:56:51;20.70;99.90
29731;DHT22;16639;51.488;0.152;2022-09-01T11:59:29;20.70;99.90
29731;DHT22;16639;51.488;0.152;2022-09-01T12:01:57;20.70;99.90
29731;DHT22;16639;51.488;0.152;2022-09-01T12:04:25;20.60;99.90
29731;DHT22;16639;51.488;0.152;2022-09-01T12:07:01;20.60;99.90
29731;DHT22;16639;51.488;0.152;2022-09-01T12:09:35;20.70;99.90
29731;DHT22;16639;51.488;0.152;2022-09-01T12:12:04;20.70;99.90
29731;DHT22;16639;51.488;0.152;2022-09-01T12:14:32;20.70;99.90
29731;DHT22;16639;51.488;0.152;2022-09-01T12:17:20;20.70;99.90
29731;DHT22;16639;51.488;0.152;2022-09-01T12:19:47;20.80;99.90
29731;DHT22;16639;51.488;0.152;2022-09-01T12:22:19;20.80;99.90
29731;DHT22;16639;51.488;0.152;2022-09-01T12:24:48;20.80;99.90
29731;DHT22;16639;51.488;0.152;2022-09-01T12:27:16;20.90;99.90
29731;DHT22;16639;51.488;0.152;2022-09-01T12:29:44;21.00;99.90
29731;DHT22;16639;51.488;0.152;2022-09-01T12:32:12;21.00;99.90
29731;DHT22;16639;51.488;0.152;2022-09-01T12:34:44;21.20;99.90
29731;DHT22;16639;51.488;0.152;2022-09-01T12:37:21;21.00;99.90
29731;DHT22;16639;51.488;0.152;2022-09-01T12:39:52;21.10;99.90
29731;DHT22;16639;51.488;0.152;2022-09-01T12:52:50;21.50;99.90
29731;DHT22;16639;51.488;0.152;2022-09-01T12:55:22;21.60;99.90
29731;DHT22;16639;51.488;0.152;2022-09-01T12:58:10;21.70;99.90
29731;DHT22;16639;51.488;0.152;2022-09-01T13:03:20;21.80;99.90
29731;DHT22;16639;51.488;0.152;2022-09-01T13:05:50;21.90;99.90
29731;DHT22;16639;51.488;0.152;2022-09-01T13:08:20;21.90;99.90
29731;DHT22;16639;51.488;0.152;2022-09-01T13:10:48;22.00;99.90
29731;DHT22;16639;51.488;0.152;2022-09-01T13:13:16;22.00;99.90
29731;DHT22;16639;51.488;0.152;2022-09-01T13:15:44;22.00;99.90
29731;DHT22;16639;51.488;0.152;2022-09-01T13:18:14;22.00;99.90
29731;DHT22;16639;51.488;0.152;2022-09-01T13:20:42;21.90;99.90
29731;DHT22;16639;51.488;0.152;2022-09-01T13:23:09;22.00;99.90
29731;DHT22;16639;51.488;0.152;2022-09-01T13:25:39;21.20;99.90
29731;DHT22;16639;51.488;0.152;2022-09-01T13:28:06;22.00;99.90
29731;DHT22;16639;51.488;0.152;2022-09-01T13:30:33;22.00;99.90
29731;DHT22;16639;51.488;0.152;2022-09-01T13:33:01;22.00;99.90
29731;DHT22;16639;51.488;0.152;2022-09-01T13:35:45;22.00;99.90
29731;DHT22;16639;51.488;0.152;2022-09-01T13:38:13;21.90;99.90
29731;DHT22;16639;51.488;0.152;2022-09-01T13:40:43;21.90;99.90
29731;DHT22;16639;51.488;0.152;2022-09-01T13:43:13;21.90;99.90
29731;DHT22;16639;51.488;0.152;2022-09-01T13:45:41;21.90;99.90
29731;DHT22;16639;51.488;0.152;2022-09-01T13:48:11;21.90;99.90
29731;DHT22;16639;51.488;0.152;2022-09-01T13:50:58;21.90;99.90
29731;DHT22;16639;51.488;0.152;2022-09-01T13:53:44;22.00;99.90
29731;DHT22;16639;51.488;0.152;2022-09-01T13:56:11;21.90;99.90
29731;DHT22;16639;51.488;0.152;2022-09-01T13:58:39;22.20;99.90
29731;DHT22;16639;51.488;0.152;2022-09-01T14:01:06;22.00;99.90
29731;DHT22;16639;51.488;0.152;2022-09-01T14:03:34;23.50;99.90
29731;DHT22;16639;51.488;0.152;2022-09-01T14:06:01;22.10;99.90
29731;DHT22;16639;51.488;0.152;2022-09-01T14:08:29;22.10;99.90
29731;DHT22;16639;51.488;0.152;2022-09-01T14:10:56;22.10;99.90
29731;DHT22;16639;51.488;0.152;2022-09-01T14:13:25;22.20;99.90
29731;DHT22;16639;51.488;0.152;2022-09-01T14:15:53;22.20;99.90
29731;DHT22;16639;51.488;0.152;2022-09-01T14:18:20;22.20;99.90
29731;DHT22;16639;51.488;0.152;2022-09-01T14:20:49;22.20;99.90
29731;DHT22;16639;51.488;0.152;2022-09-01T14:23:23;22.30;99.90
29731;DHT22;16639;51.488;0.152;2022-09-01T14:25:50;22.30;99.90
29731;DHT22;16639;51.488;0.152;2022-09-01T14:28:19;22.40;99.90
29731;DHT22;16639;51.488;0.152;2022-09-01T14:30:47;22.40;99.90
29731;DHT22;16639;51.488;0.152;2022-09-01T14:33:15;22.40;99.90
29731;DHT22;16639;51.488;0.152;2022-09-01T14:35:44;22.40;99.90
29731;DHT22;16639;51.488;0.152;2022-09-01T14:38:14;22.40;99.90
29731;DHT22;16639;51.488;0.152;2022-09-01T14:40:42;22.40;99.90
29731;DHT22;16639;51.488;0.152;2022-09-01T14:43:10;22.40;99.90
29731;DHT22;16639;51.488;0.152;2022-09-01T14:45:40;22.50;99.90
29731;DHT22;16639;51.488;0.152;2022-09-01T14:48:13;22.40;99.90
29731;DHT22;16639;51.488;0.152;2022-09-01T14:50:42;22.40;99.90
29731;DHT22;16639;51.488;0.152;2022-09-01T14:53:09;22.50;99.90
29731;DHT22;16639;51.488;0.152;2022-09-01T14:55:37;22.50;99.90
29731;DHT22;16639;51.488;0.152;2022-09-01T14:58:04;22.50;99.90
29731;DHT22;16639;51.488;0.152;2022-09-01T15:00:32;22.60;99.90
29731;DHT22;16639;51.488;0.152;2022-09-01T15:03:01;22.60;99.90
29731;DHT22;16639;51.488;0.152;2022-09-01T15:05:29;22.70;99.90
29731;DHT22;16639;51.488;0.152;2022-09-01T15:08:06;22.70;99.90
29731;DHT22;16639;51.488;0.152;2022-09-01T15:10:34;22.30;99.90
29731;DHT22;16639;51.488;0.152;2022-09-01T15:13:02;22.80;99.90
29731;DHT22;16639;51.488;0.152;2022-09-01T15:15:30;22.80;99.90
29731;DHT22;16639;51.488;0.152;2022-09-01T15:17:58;22.50;99.90
29731;DHT22;16639;51.488;0.152;2022-09-01T15:20:26;22.90;99.90
29731;DHT22;16639;51.488;0.152;2022-09-01T15:23:13;22.80;99.90
29731;DHT22;16639;51.488;0.152;2022-09-01T15:25:43;22.80;99.90
29731;DHT22;16639;51.488;0.152;2022-09-01T15:28:12;22.70;99.90
29731;DHT22;16639;51.488;0.152;2022-09-01T15:30:39;22.60;99.90
29731;DHT22;16639;51.488;0.152;2022-09-01T15:33:07;22.60;99.90
29731;DHT22;16639;51.488;0.152;2022-09-01T15:35:41;22.50;99.90
29731;DHT22;16639;51.488;0.152;2022-09-01T15:38:08;22.50;99.90
29731;DHT22;16639;51.488;0.152;2022-09-01T15:40:43;22.40;99.90
29731;DHT22;16639;51.488;0.152;2022-09-01T15:43:17;22.40;99.90
29731;DHT22;16639;51.488;0.152;2022-09-01T15:45:47;22.40;99.90
29731;DHT22;16639;51.488;0.152;2022-09-01T15:48:14;22.50;99.90
29731;DHT22;16639;51.488;0.152;2022-09-01T15:50:41;22.50;99.90
29731;DHT22;16639;51.488;0.152;2022-09-01T15:53:08;22.60;99.90
29731;DHT22;16639;51.488;0.152;2022-09-01T15:55:41;22.60;99.90
29731;DHT22;16639;51.488;0.152;2022-09-01T15:58:09;22.60;99.90
29731;DHT22;16639;51.488;0.152;2022-09-01T16:00:37;22.50;99.90
29731;DHT22;16639;51.488;0.152;2022-09-01T16:03:05;22.50;99.90
29731;DHT22;16639;51.488;0.152;2022-09-01T16:05:33;22.50;99.90
29731;DHT22;16639;51.488;0.152;2022-09-01T16:08:01;22.50;99.90
29731;DHT22;16639;51.488;0.152;2022-09-01T16:10:29;22.40;99.90
29731;DHT22;16639;51.488;0.152;2022-09-01T16:13:02;22.00;99.90
29731;DHT22;16639;51.488;0.152;2022-09-01T16:15:29;22.40;99.90
29731;DHT22;16639;51.488;0.152;2022-09-01T16:23:17;22.30;99.90
29731;DHT22;16639;51.488;0.152;2022-09-01T16:25:44;22.20;99.90
29731;DHT22;16639;51.488;0.152;2022-09-01T16:28:29;22.20;99.90
29731;DHT22;16639;51.488;0.152;2022-09-01T16:31:15;22.10;99.90
29731;DHT22;16639;51.488;0.152;2022-09-01T16:33:48;22.10;99.90
29731;DHT22;16639;51.488;0.152;2022-09-01T16:38:47;22.00;99.90
29731;DHT22;16639;51.488;0.152;2022-09-01T16:41:22;22.00;99.90
29731;DHT22;16639;51.488;0.152;2022-09-01T16:43:58;22.00;99.90
29731;DHT22;16639;51.488;0.152;2022-09-01T16:49:17;21.90;99.90
29731;DHT22;16639;51.488;0.152;2022-09-01T16:54:32;21.80;99.90
29731;DHT22;16639;51.488;0.152;2022-09-01T16:57:11;21.80;99.90
29731;DHT22;16639;51.488;0.152;2022-09-01T16:59:44;21.80;99.90
29731;DHT22;16639;51.488;0.152;2022-09-01T17:05:11;21.70;99.90
29731;DHT22;16639;51.488;0.152;2022-09-01T17:13:08;21.60;99.90
29731;DHT22;16639;51.488;0.152;2022-09-01T17:15:44;21.70;99.90
29731;DHT22;16639;51.488;0.152;2022-09-01T17:20:54;21.60;99.90
29731;DHT22;16639;51.488;0.152;2022-09-01T17:23:25;21.50;99.90
29731;DHT22;16639;51.488;0.152;2022-09-01T17:25:55;21.50;99.90
29731;DHT22;16639;51.488;0.152;2022-09-01T17:28:31;21.50;99.90
29731;DHT22;16639;51.488;0.152;2022-09-01T17:36:27;21.40;99.90
29731;DHT22;16639;51.488;0.152;2022-09-01T17:39:07;21.40;99.90